createdAt,value
2019-01-31T00:03:08.211Z,99422.03
2019-01-31T00:06:14.070Z,99422.03
2019-01-31T00:09:08.809Z,99439.01
2019-01-31T00:12:28.092Z,99439.01
2019-01-31T00:15:02.323Z,99433.80
2019-01-31T00:17:52.670Z,99433.80
2019-01-31T00:20:29.259Z,99441.50
2019-01-31T00:23:44.797Z,99438.25
2019-01-31T00:26:40.119Z,99438.25
2019-01-31T00:29:20.010Z,99448.19
2019-01-31T00:32:27.812Z,99448.19
2019-01-31T00:35:17.434Z,99438.56
2019-01-31T00:38:21.791Z,99438.56
2019-01-31T00:41:27.743Z,99450.82
2019-01-31T00:44:02.812Z,99451.97
2019-01-31T00:47:19.235Z,99448.69
2019-01-31T00:50:33.700Z,99448.69
2019-01-31T00:53:41.395Z,99452.37
2019-01-31T00:56:53.416Z,99456.00
2019-01-31T00:59:45.708Z,99456.56
2019-01-31T01:02:35.771Z,99459.31
2019-01-31T01:05:39.730Z,99459.31
2019-01-31T01:08:21.793Z,99462.41
2019-01-31T01:11:02.828Z,99459.94
2019-01-31T01:14:17.870Z,99454.22
2019-01-31T01:17:05.704Z,99460.00
2019-01-31T01:19:56.520Z,99466.61
2019-01-31T01:22:46.218Z,99468.78
2019-01-31T01:26:00.140Z,99468.78
2019-01-31T01:28:54.727Z,99469.36
2019-01-31T01:32:01.997Z,99478.23
2019-01-31T01:35:07.941Z,99477.34
2019-01-31T01:38:09.112Z,99477.34
2019-01-31T01:40:51.899Z,99473.33
2019-01-31T01:43:41.059Z,99479.11
2019-01-31T01:46:35.171Z,99481.45
2019-01-31T01:49:44.659Z,99478.67
2019-01-31T01:52:37.873Z,99482.28
2019-01-31T01:55:43.987Z,99496.21
2019-01-31T01:58:44.324Z,99486.20
2019-01-31T02:01:34.813Z,99489.67
2019-01-31T02:04:38.721Z,99489.67
2019-01-31T02:07:21.954Z,99489.94
2019-01-31T02:10:20.292Z,99482.30
2019-01-31T02:13:20.152Z,99486.27
2019-01-31T02:16:31.218Z,99487.79
2019-01-31T02:19:16.398Z,99492.97
2019-01-31T02:22:02.647Z,99492.97
2019-01-31T02:24:57.812Z,99493.59
2019-01-31T02:27:59.237Z,99487.52
2019-01-31T02:30:42.670Z,99480.64
2019-01-31T02:33:54.397Z,99485.77
2019-01-31T02:37:29.163Z,99484.95
2019-01-31T02:40:36.497Z,99484.95
2019-01-31T02:43:27.617Z,99480.64
2019-01-31T02:46:25.743Z,99476.16
2019-01-31T02:49:13.607Z,99485.06
2019-01-31T02:52:20.260Z,99479.65
2019-01-31T02:55:21.802Z,99477.67
2019-01-31T02:58:23.331Z,99480.37
2019-01-31T03:01:25.262Z,99478.75
2019-01-31T03:04:18.152Z,99478.75
2019-01-31T03:07:24.391Z,99480.59
2019-01-31T03:10:23.250Z,99480.59
2019-01-31T03:13:02.688Z,99484.20
2019-01-31T03:15:52.355Z,99484.05
2019-01-31T03:19:04.429Z,99484.05
2019-01-31T03:22:07.502Z,99482.30
2019-01-31T03:25:18.269Z,99489.77
2019-01-31T03:27:58.586Z,99490.40
2019-01-31T03:30:55.637Z,99482.18
2019-01-31T03:34:06.909Z,99479.36
2019-01-31T03:37:09.772Z,99485.63
2019-01-31T03:40:07.048Z,99484.30
2019-01-31T03:43:09.606Z,99484.30
2019-01-31T03:46:06.401Z,99477.11
2019-01-31T03:48:51.431Z,99486.12
2019-01-31T03:52:00.601Z,99475.55
2019-01-31T03:54:39.511Z,99485.09
2019-01-31T03:57:26.211Z,99486.06
2019-01-31T04:00:09.565Z,99486.06
2019-01-31T04:03:26.067Z,99492.11
2019-01-31T04:06:06.015Z,99499.98
2019-01-31T04:08:35.076Z,99493.38
2019-01-31T04:11:04.241Z,99493.38
2019-01-31T04:13:33.334Z,99501.03
2019-01-31T04:16:02.461Z,99501.86
2019-01-31T04:18:31.559Z,99501.86
2019-01-31T04:21:00.673Z,99498.11
2019-01-31T04:23:29.707Z,99503.69
2019-01-31T04:25:58.763Z,99501.45
2019-01-31T04:28:30.648Z,99502.57
2019-01-31T04:30:58.509Z,99502.57
2019-01-31T04:33:27.775Z,99491.21
2019-01-31T04:35:57.052Z,99503.39
2019-01-31T04:38:26.545Z,99509.79
2019-01-31T04:40:55.892Z,99509.92
2019-01-31T04:43:24.938Z,99509.16
2019-01-31T04:45:54.086Z,99505.13
2019-01-31T04:48:23.277Z,99505.13
2019-01-31T04:50:52.386Z,99447.58
2019-01-31T04:53:21.475Z,99447.58
2019-01-31T04:55:50.518Z,99504.86
2019-01-31T04:58:19.574Z,99504.14
2019-01-31T05:00:48.586Z,99502.17
2019-01-31T05:03:17.678Z,99496.41
2019-01-31T05:05:46.754Z,99501.02
2019-01-31T05:08:15.906Z,99496.58
2019-01-31T05:10:44.954Z,99503.11
2019-01-31T05:13:14.011Z,99503.11
2019-01-31T05:15:43.150Z,99503.59
2019-01-31T05:18:12.295Z,99503.59
2019-01-31T05:20:41.317Z,99501.83
2019-01-31T05:23:10.347Z,99503.96
2019-01-31T05:25:39.395Z,99509.02
2019-01-31T05:28:08.479Z,99506.97
2019-01-31T05:30:37.755Z,99502.47
2019-01-31T05:33:09.286Z,99502.47
2019-01-31T05:35:38.406Z,99506.27
2019-01-31T05:38:07.544Z,99507.66
2019-01-31T05:40:36.568Z,99507.17
2019-01-31T05:43:05.708Z,99507.17
2019-01-31T05:45:34.931Z,99512.89
2019-01-31T05:48:04.275Z,99507.48
2019-01-31T05:50:33.462Z,99507.48
2019-01-31T05:53:02.583Z,99507.63
2019-01-31T05:55:31.697Z,99508.34
2019-01-31T05:58:00.895Z,99511.27
2019-01-31T06:00:33.530Z,99511.27
2019-01-31T06:03:02.654Z,99509.23
2019-01-31T06:05:31.814Z,99510.80
2019-01-31T06:08:00.905Z,99516.61
2019-01-31T06:10:30.137Z,99512.44
2019-01-31T06:12:59.217Z,99512.44
2019-01-31T06:15:28.433Z,99511.16
2019-01-31T06:25:49.576Z,99522.14
2019-01-31T06:28:23.579Z,99523.09
2019-01-31T06:30:55.623Z,99525.45
2019-01-31T06:33:37.029Z,99528.53
2019-01-31T06:36:06.353Z,99526.55
2019-01-31T06:38:35.536Z,99523.27
2019-01-31T06:41:04.730Z,99522.50
2019-01-31T06:43:34.015Z,99522.67
2019-01-31T06:46:03.089Z,99529.58
2019-01-31T06:48:34.153Z,99533.48
2019-01-31T06:51:03.019Z,99523.50
2019-01-31T06:53:32.042Z,99529.37
2019-01-31T06:56:01.071Z,99528.75
2019-01-31T06:58:30.057Z,99530.00
2019-01-31T07:00:59.798Z,99529.93
2019-01-31T07:03:29.211Z,99530.23
2019-01-31T07:05:58.292Z,99534.16
2019-01-31T07:08:27.491Z,99539.89
2019-01-31T07:10:56.668Z,99539.89
2019-01-31T07:13:25.736Z,99544.40
2019-01-31T07:15:55.874Z,99551.25
2019-01-31T07:18:25.017Z,99559.19
2019-01-31T07:20:54.180Z,99556.63
2019-01-31T07:23:23.316Z,99558.43
2019-01-31T07:25:52.414Z,99565.94
2019-01-31T07:28:22.923Z,99571.54
2019-01-31T07:30:55.324Z,99566.52
2019-01-31T07:33:24.886Z,99562.89
2019-01-31T07:35:54.121Z,99562.89
2019-01-31T07:38:23.248Z,99572.05
2019-01-31T07:40:52.414Z,99574.22
2019-01-31T07:43:21.550Z,99580.13
2019-01-31T07:45:50.728Z,99580.11
2019-01-31T07:51:46.203Z,99579.40
2019-01-31T07:56:43.395Z,99586.03
2019-01-31T07:59:12.512Z,99586.03
2019-01-31T08:01:41.656Z,99583.44
2019-01-31T08:04:10.842Z,99578.48
2019-01-31T08:06:42.108Z,99586.72
2019-01-31T08:09:12.628Z,99575.70
2019-01-31T08:11:52.087Z,99583.64
2019-01-31T08:14:12.744Z,99585.89
2019-01-31T08:16:47.501Z,99586.00
2019-01-31T08:51:24.759Z,99598.88
2019-01-31T11:13:12.261Z,99561.88
2019-01-31T11:16:35.881Z,99560.28
2019-01-31T11:20:04.830Z,99562.72
2019-01-31T11:22:43.964Z,99562.72
2019-01-31T11:26:10.324Z,99556.52
2019-01-31T11:29:14.271Z,99558.33
2019-01-31T11:32:17.359Z,99558.33
2019-01-31T11:35:19.178Z,99563.18
2019-01-31T11:38:10.691Z,99562.56
2019-01-31T11:41:07.559Z,99563.56
2019-01-31T11:44:22.992Z,99569.15
2019-01-31T11:47:48.563Z,99570.22
2019-01-31T11:50:33.616Z,99571.59
2019-01-31T11:53:23.104Z,99566.09
2019-01-31T11:56:20.773Z,99568.30
2019-01-31T11:59:03.428Z,99576.66
2019-01-31T12:01:32.793Z,99564.58
2019-01-31T12:04:13.834Z,99564.58
2019-01-31T12:06:47.200Z,99561.24
2019-01-31T12:09:21.851Z,99565.81
2019-01-31T12:11:52.378Z,99564.91
2019-01-31T12:14:21.735Z,99565.89
2019-01-31T12:16:50.993Z,99565.16
2019-01-31T12:19:20.224Z,99565.16
2019-01-31T12:21:49.577Z,99565.92
2019-01-31T12:24:18.904Z,99565.92
2019-01-31T12:26:48.040Z,99563.94
2019-01-31T12:29:18.338Z,99567.30
2019-01-31T12:31:47.385Z,99567.00
2019-01-31T12:34:18.394Z,99560.73
2019-01-31T12:36:47.546Z,99556.52
2019-01-31T12:39:21.182Z,99557.51
2019-01-31T12:41:50.498Z,99560.70
2019-01-31T12:44:23.421Z,99560.70
2019-01-31T12:46:52.543Z,99560.70
2019-01-31T12:49:21.723Z,99557.42
2019-01-31T12:51:50.892Z,99568.73
2019-01-31T12:54:20.110Z,99565.28
2019-01-31T12:56:53.625Z,99567.59
2019-01-31T12:59:24.648Z,99567.59
2019-01-31T13:01:53.949Z,99558.16
2019-01-31T13:04:23.091Z,99555.48
2019-01-31T13:06:53.344Z,99557.17
2019-01-31T13:09:22.502Z,99560.22
2019-01-31T13:11:51.671Z,99552.55
2019-01-31T13:14:20.919Z,99552.98
2019-01-31T13:16:50.273Z,99552.98
2019-01-31T13:19:19.541Z,99552.91
2019-01-31T13:21:48.808Z,99560.81
2019-01-31T13:24:17.995Z,99560.81
2019-01-31T13:26:47.180Z,99568.77
2019-01-31T13:29:16.434Z,99570.95
2019-01-31T13:31:45.644Z,99566.34
2019-01-31T13:34:14.607Z,99563.22
2019-01-31T13:36:43.794Z,99563.22
2019-01-31T13:39:16.201Z,99566.06
2019-01-31T13:41:45.501Z,99569.22
2019-01-31T13:44:14.610Z,99565.73
2019-01-31T13:46:43.859Z,99566.45
2019-01-31T13:49:13.031Z,99559.03
2019-01-31T13:51:42.166Z,99561.85
2019-01-31T13:54:11.382Z,99563.00
2019-01-31T13:56:45.786Z,99565.69
2019-01-31T13:59:11.467Z,99562.08
2019-01-31T14:01:40.649Z,99561.34
2019-01-31T14:04:09.847Z,99561.34
2019-01-31T14:06:38.959Z,99554.55
2019-01-31T14:09:10.041Z,99551.11
2019-01-31T14:11:39.126Z,99551.11
2019-01-31T14:14:09.462Z,99554.27
2019-01-31T14:16:47.234Z,99557.00
2019-01-31T14:19:09.970Z,99555.98
2019-01-31T14:21:39.119Z,99546.52
2019-01-31T14:24:08.227Z,99552.08
2019-01-31T14:26:37.741Z,99549.85
2019-01-31T14:29:07.186Z,99543.78
2019-01-31T14:31:36.297Z,99549.94
2019-01-31T14:34:05.502Z,99547.75
2019-01-31T14:36:34.669Z,99546.51
2019-01-31T14:39:04.920Z,99544.23
2019-01-31T14:41:33.991Z,99545.35
2019-01-31T14:44:03.118Z,99538.40
2019-01-31T14:46:32.242Z,99535.00
2019-01-31T14:49:02.448Z,99538.11
2019-01-31T14:51:31.565Z,99538.72
2019-01-31T14:54:00.721Z,99535.69
2019-01-31T14:56:29.887Z,99535.18
2019-01-31T14:58:59.147Z,99540.27
2019-01-31T15:01:28.350Z,99538.53
2019-01-31T15:03:58.582Z,99535.23
2019-01-31T15:06:27.816Z,99535.23
2019-01-31T15:08:56.867Z,99538.56
2019-01-31T15:11:26.071Z,99530.66
2019-01-31T15:13:55.389Z,99530.66
2019-01-31T15:16:24.576Z,99524.17
2019-01-31T15:18:53.686Z,99523.80
2019-01-31T15:21:24.986Z,99519.11
2019-01-31T15:23:55.593Z,99526.20
2019-01-31T15:26:24.698Z,99523.31
2019-01-31T15:28:53.773Z,99523.31
2019-01-31T15:31:22.938Z,99513.70
2019-01-31T15:33:52.069Z,99508.30
2019-01-31T15:36:21.502Z,99505.19
2019-01-31T15:38:50.620Z,99501.30
2019-01-31T15:41:19.912Z,99503.53
2019-01-31T15:43:49.372Z,99499.54
2019-01-31T15:46:19.014Z,99499.54
2019-01-31T15:48:47.970Z,99498.84
2019-01-31T15:51:17.193Z,99496.00
2019-01-31T15:53:46.382Z,99499.70
2019-01-31T15:56:15.673Z,99499.70
2019-01-31T15:58:44.889Z,99497.67
2019-01-31T16:01:16.114Z,99486.89
2019-01-31T16:03:45.321Z,99485.28
2019-01-31T16:06:14.689Z,99485.28
2019-01-31T16:08:43.867Z,99479.38
2019-01-31T16:11:13.139Z,99477.83
2019-01-31T16:13:42.296Z,99473.44
2019-01-31T16:16:11.548Z,99473.44
2019-01-31T16:18:40.733Z,99472.34
2019-01-31T16:21:10.001Z,99462.89
2019-01-31T16:23:39.121Z,99456.98
2019-01-31T16:26:08.675Z,99456.98
2019-01-31T16:29:53.390Z,99457.61
2019-01-31T16:32:25.662Z,99447.88
2019-01-31T16:34:54.875Z,99445.30
2019-01-31T16:37:24.106Z,99435.91
2019-01-31T16:39:53.368Z,99438.39
2019-01-31T16:42:23.687Z,99434.99
2019-01-31T16:44:52.857Z,99434.99
2019-01-31T16:47:24.166Z,99429.58
2019-01-31T16:49:53.412Z,99433.13
2019-01-31T16:52:22.690Z,99432.77
2019-01-31T16:54:52.752Z,99433.53
2019-01-31T16:57:22.009Z,99433.53
2019-01-31T16:59:51.456Z,99425.14
2019-01-31T17:02:20.641Z,99420.62
2019-01-31T17:04:49.849Z,99422.55
2019-01-31T17:07:19.112Z,99412.39
2019-01-31T17:09:48.321Z,99412.67
2019-01-31T17:12:19.595Z,99412.67
2019-01-31T17:14:48.745Z,99410.58
2019-01-31T17:17:17.920Z,99414.92
2019-01-31T17:19:47.129Z,99408.98
2019-01-31T17:22:16.141Z,99408.16
2019-01-31T17:24:45.204Z,99401.84
2019-01-31T17:27:14.289Z,99396.77
2019-01-31T17:29:44.983Z,99396.77
2019-01-31T17:32:14.222Z,99398.83
2019-01-31T17:34:43.334Z,99397.56
2019-01-31T17:37:12.404Z,99397.56
2019-01-31T17:39:41.495Z,99399.63
2019-01-31T17:42:10.573Z,99397.60
2019-01-31T17:44:39.762Z,99393.70
2019-01-31T17:47:08.890Z,99398.25
2019-01-31T17:49:51.248Z,99401.55
2019-01-31T17:52:21.174Z,99397.94
2019-01-31T17:54:50.267Z,99399.17
2019-01-31T17:57:19.604Z,99392.91
2019-01-31T17:59:48.571Z,99405.57
2019-01-31T18:02:17.798Z,99406.75
2019-01-31T18:04:47.075Z,99398.28
2019-01-31T18:07:16.594Z,99401.09
2019-01-31T18:09:47.056Z,99401.09
2019-01-31T18:12:16.275Z,99400.98
2019-01-31T18:14:45.424Z,99389.90
2019-01-31T18:17:14.470Z,99389.90
2019-01-31T18:19:43.591Z,99392.11
2019-01-31T18:22:12.844Z,99383.43
2019-01-31T18:24:42.105Z,99376.55
2019-01-31T18:27:11.195Z,99379.59
2019-01-31T18:29:41.620Z,99380.73
2019-01-31T18:32:10.648Z,99380.89
2019-01-31T18:34:40.204Z,99382.95
2019-01-31T18:37:09.455Z,99373.09
2019-01-31T18:39:38.583Z,99376.56
2019-01-31T18:42:07.796Z,99376.56
2019-01-31T18:44:36.954Z,99371.80
2019-01-31T18:47:06.147Z,99371.69
2019-01-31T18:49:35.395Z,99371.97
2019-01-31T18:52:05.846Z,99372.09
2019-01-31T18:54:35.171Z,99367.45
2019-01-31T18:57:12.826Z,99368.55
2019-01-31T18:59:43.803Z,99366.02
2019-01-31T19:02:13.027Z,99366.81
2019-01-31T19:04:43.769Z,99363.20
2019-01-31T19:07:13.123Z,99363.94
2019-01-31T19:09:42.194Z,99363.53
2019-01-31T19:12:13.003Z,99362.28
2019-01-31T19:14:43.937Z,99349.91
2019-01-31T19:17:12.940Z,99351.56
2019-01-31T19:19:42.107Z,99344.59
2019-01-31T19:22:11.360Z,99350.88
2019-01-31T19:24:42.275Z,99343.06
2019-01-31T19:27:12.455Z,99341.33
2019-01-31T19:29:43.713Z,99341.33
2019-01-31T19:32:15.054Z,99165.38
2019-01-31T19:34:49.404Z,99330.94
2019-01-31T19:37:19.999Z,99310.08
2019-01-31T19:39:49.237Z,99306.38
2019-01-31T19:42:22.678Z,99298.47
2019-01-31T19:44:51.538Z,99298.47
2019-01-31T19:47:22.938Z,99290.55
2019-01-31T19:49:51.981Z,99271.07
2019-01-31T19:52:22.195Z,99265.39
2019-01-31T19:54:52.238Z,99265.17
2019-01-31T19:57:21.251Z,99261.75
2019-01-31T19:59:50.321Z,99259.16
2019-01-31T20:02:19.512Z,99259.16
2019-01-31T20:04:48.656Z,99264.88
2019-01-31T20:07:17.929Z,99252.16
2019-01-31T20:09:47.139Z,99241.86
2019-01-31T20:12:17.600Z,99233.19
2019-01-31T20:14:46.740Z,99233.56
2019-01-31T20:17:15.839Z,99233.56
2019-01-31T20:19:46.084Z,99239.87
2019-01-31T20:22:15.269Z,99242.72
2019-01-31T20:24:44.292Z,99239.43
2019-01-31T20:27:13.480Z,99236.30
2019-01-31T20:29:44.860Z,99235.08
2019-01-31T20:32:14.021Z,99225.24
2019-01-31T20:34:43.078Z,99217.52
2019-01-31T20:37:12.286Z,99209.36
2019-01-31T20:39:41.704Z,99212.03
2019-01-31T20:42:10.873Z,99212.03
2019-01-31T20:44:39.985Z,99221.88
2019-01-31T20:47:09.095Z,99210.33
2019-01-31T20:49:38.173Z,99210.33
2019-01-31T20:52:07.726Z,99210.74
2019-01-31T20:54:37.682Z,99210.74
2019-01-31T20:57:08.564Z,99218.71
2019-01-31T20:59:37.711Z,99218.71
2019-01-31T21:02:07.449Z,99206.22
2019-01-31T21:04:37.318Z,99211.54
2019-01-31T21:07:07.921Z,99203.34
2019-01-31T21:09:37.020Z,99204.42
2019-01-31T21:12:06.214Z,99196.81
2019-01-31T21:14:35.243Z,99199.58
2019-01-31T21:17:04.463Z,99199.58
2019-01-31T21:19:33.578Z,99200.55
2019-01-31T21:22:02.826Z,99201.97
2019-01-31T21:24:31.946Z,99201.97
2019-01-31T21:27:01.023Z,99195.44
2019-01-31T21:29:30.129Z,99192.70
2019-01-31T21:31:59.211Z,99191.08
2019-01-31T21:34:28.661Z,99180.83
2019-01-31T21:36:57.784Z,99180.83
2019-01-31T21:39:26.889Z,99177.89
2019-01-31T21:41:55.984Z,99166.20
2019-01-31T21:44:25.039Z,99166.20
2019-01-31T21:47:02.829Z,99144.80
2019-01-31T21:49:25.156Z,99138.74
2019-01-31T21:51:54.130Z,99144.25
2019-01-31T21:54:23.165Z,99144.25
2019-01-31T21:56:53.722Z,99122.80
2019-01-31T21:59:23.548Z,99125.10
2019-01-31T22:01:52.551Z,99125.10
2019-01-31T22:04:21.671Z,99108.00
2019-01-31T22:06:50.796Z,99106.22
2019-01-31T22:09:21.300Z,99101.05
2019-01-31T22:11:50.717Z,99094.49
2019-01-31T22:14:19.788Z,99090.91
2019-01-31T22:16:48.845Z,99084.55
2019-01-31T22:19:17.929Z,99080.86
2019-01-31T22:21:46.970Z,99069.42
2019-01-31T22:24:16.122Z,99069.42
2019-01-31T22:26:45.145Z,99066.59
2019-01-31T22:29:14.245Z,99069.19
2019-01-31T22:31:43.253Z,99069.19
2019-01-31T22:34:13.020Z,99069.78
2019-01-31T22:36:42.449Z,99060.86
2019-01-31T22:39:11.610Z,99057.50
2019-01-31T22:41:40.645Z,99058.67
2019-01-31T22:44:09.651Z,99064.67
2019-01-31T22:46:38.854Z,99062.23
2019-01-31T22:49:07.935Z,99056.66
2019-01-31T22:51:37.541Z,99056.66
2019-01-31T22:54:06.919Z,99047.47
2019-01-31T22:56:36.042Z,99050.41
2019-01-31T22:59:05.754Z,99050.41
2019-01-31T23:01:42.053Z,99048.66
2019-01-31T23:04:11.237Z,99045.98
2019-01-31T23:06:40.298Z,99045.98
2019-01-31T23:09:11.858Z,99052.48
2019-01-31T23:11:40.924Z,99052.48
2019-01-31T23:14:10.089Z,99045.83
2019-01-31T23:16:39.124Z,99045.72
2019-01-31T23:19:08.288Z,99043.29
2019-01-31T23:21:37.466Z,99040.34
2019-01-31T23:24:07.893Z,99040.34
2019-01-31T23:26:37.923Z,99034.90
2019-01-31T23:29:07.437Z,99028.81
2019-01-31T23:31:36.637Z,99028.81
2019-01-31T23:34:06.293Z,99018.47
2019-01-31T23:36:35.439Z,99021.30
2019-01-31T23:39:08.806Z,99014.28
2019-01-31T23:41:40.263Z,99016.13
2019-01-31T23:44:09.420Z,99016.79
2019-01-31T23:46:38.462Z,99007.17
2019-01-31T23:49:07.692Z,99017.22
2019-01-31T23:51:36.817Z,99017.22
2019-01-31T23:54:06.174Z,99001.59
2019-01-31T23:56:35.217Z,98992.16
2019-01-31T23:59:07.907Z,98990.81
